sensor_id;sensor_type;location;lat;lon;timestamp;pressure;altitude;pressure_sealevel;temperature;humidity
17362;BME280;8798;51.938;4.348;2022-07-29T00:02:05;101440.59;;;20.22;52.05
17362;BME280;8798;51.938;4.348;2022-07-29T00:04:34;101432.19;;;20.16;52.19
17362;BME280;8798;51.938;4.348;2022-07-29T00:07:02;101434.25;;;20.14;52.40
17362;BME280;8798;51.938;4.348;2022-07-29T00:09:30;101420.38;;;20.09;52.36
17362;BME280;8798;51.938;4.348;2022-07-29T00:11:59;101418.91;;;20.07;52.28
17362;BME280;8798;51.938;4.348;2022-07-29T00:14:29;101411.13;;;20.04;52.39
17362;BME280;8798;51.938;4.348;2022-07-29T00:16:56;101408.59;;;20.02;52.55
17362;BME280;8798;51.938;4.348;2022-07-29T00:19:24;101411.53;;;20.01;52.41
17362;BME280;8798;51.938;4.348;2022-07-29T00:21:52;101407.31;;;19.98;52.67
17362;BME280;8798;51.938;4.348;2022-07-29T00:24:20;101399.75;;;19.93;52.66
17362;BME280;8798;51.938;4.348;2022-07-29T00:26:49;101385.63;;;19.90;52.75
17362;BME280;8798;51.938;4.348;2022-07-29T00:29:19;101381.66;;;19.86;52.88
17362;BME280;8798;51.938;4.348;2022-07-29T00:32:05;101386.25;;;19.85;52.92
17362;BME280;8798;51.938;4.348;2022-07-29T00:34:32;101392.56;;;19.86;52.84
17362;BME280;8798;51.938;4.348;2022-07-29T00:37:18;101407.03;;;19.86;53.06
17362;BME280;8798;51.938;4.348;2022-07-29T00:39:45;101404.50;;;19.85;53.00
17362;BME280;8798;51.938;4.348;2022-07-29T00:42:13;101409.09;;;19.84;53.16
17362;BME280;8798;51.938;4.348;2022-07-29T00:44:42;101405.09;;;19.80;53.14
17362;BME280;8798;51.938;4.348;2022-07-29T00:47:11;101408.88;;;19.79;53.06
17362;BME280;8798;51.938;4.348;2022-07-29T00:49:41;101395.00;;;19.74;53.28
17362;BME280;8798;51.938;4.348;2022-07-29T00:52:10;101386.16;;;19.72;53.25
17362;BME280;8798;51.938;4.348;2022-07-29T00:54:42;101394.34;;;19.72;53.38
17362;BME280;8798;51.938;4.348;2022-07-29T00:57:11;101389.94;;;19.71;53.53
17362;BME280;8798;51.938;4.348;2022-07-29T00:59:39;101386.94;;;19.66;53.39
17362;BME280;8798;51.938;4.348;2022-07-29T01:02:07;101384.41;;;19.64;53.53
17362;BME280;8798;51.938;4.348;2022-07-29T01:04:36;101373.91;;;19.61;53.63
17362;BME280;8798;51.938;4.348;2022-07-29T01:07:04;101375.13;;;19.59;53.88
17362;BME280;8798;51.938;4.348;2022-07-29T01:09:32;101380.59;;;19.59;53.72
17362;BME280;8798;51.938;4.348;2022-07-29T01:12:13;101384.34;;;19.58;53.61
17362;BME280;8798;51.938;4.348;2022-07-29T01:14:43;101385.16;;;19.58;53.87
17362;BME280;8798;51.938;4.348;2022-07-29T01:17:13;101373.84;;;19.54;53.73
17362;BME280;8798;51.938;4.348;2022-07-29T01:19:50;101370.88;;;19.49;53.75
17362;BME280;8798;51.938;4.348;2022-07-29T01:22:37;101367.50;;;19.47;53.92
17362;BME280;8798;51.938;4.348;2022-07-29T01:25:30;101362.22;;;19.46;54.19
17362;BME280;8798;51.938;4.348;2022-07-29T01:28:14;101366.00;;;19.45;54.00
17362;BME280;8798;51.938;4.348;2022-07-29T01:30:51;101377.97;;;19.44;54.22
17362;BME280;8798;51.938;4.348;2022-07-29T01:33:20;101376.25;;;19.43;54.15
17362;BME280;8798;51.938;4.348;2022-07-29T01:36:07;101382.75;;;19.42;54.26
17362;BME280;8798;51.938;4.348;2022-07-29T01:38:39;101389.88;;;19.43;54.05
17362;BME280;8798;51.938;4.348;2022-07-29T01:41:10;101402.47;;;19.44;54.29
17362;BME280;8798;51.938;4.348;2022-07-29T01:43:43;101402.66;;;19.42;54.39
17362;BME280;8798;51.938;4.348;2022-07-29T01:46:15;101408.94;;;19.43;54.62
17362;BME280;8798;51.938;4.348;2022-07-29T01:48:47;101403.06;;;19.39;54.69
17362;BME280;8798;51.938;4.348;2022-07-29T01:51:19;101406.63;;;19.40;54.66
17362;BME280;8798;51.938;4.348;2022-07-29T01:53:54;101411.25;;;19.39;54.61
17362;BME280;8798;51.938;4.348;2022-07-29T01:56:24;101423.81;;;19.40;54.88
17362;BME280;8798;51.938;4.348;2022-07-29T01:58:54;101434.53;;;19.42;54.91
17362;BME280;8798;51.938;4.348;2022-07-29T02:01:26;101425.88;;;19.38;54.96
17362;BME280;8798;51.938;4.348;2022-07-29T02:03:56;101408.25;;;19.34;54.91
17362;BME280;8798;51.938;4.348;2022-07-29T02:06:26;101402.34;;;19.30;55.04
17362;BME280;8798;51.938;4.348;2022-07-29T02:08:57;101395.41;;;19.28;54.94
17362;BME280;8798;51.938;4.348;2022-07-29T02:11:26;101395.81;;;19.25;54.95
17362;BME280;8798;51.938;4.348;2022-07-29T02:13:56;101391.41;;;19.24;54.90
17362;BME280;8798;51.938;4.348;2022-07-29T02:16:29;101397.03;;;19.22;55.13
17362;BME280;8798;51.938;4.348;2022-07-29T02:19:01;101386.53;;;19.19;55.20
17362;BME280;8798;51.938;4.348;2022-07-29T02:21:30;101389.28;;;19.19;55.13
17362;BME280;8798;51.938;4.348;2022-07-29T02:24:01;101395.56;;;19.20;55.25
17362;BME280;8798;51.938;4.348;2022-07-29T02:26:30;101405.63;;;19.19;55.28
17362;BME280;8798;51.938;4.348;2022-07-29T02:29:00;101403.91;;;19.18;55.11
17362;BME280;8798;51.938;4.348;2022-07-29T02:31:33;101409.75;;;19.15;55.52
17362;BME280;8798;51.938;4.348;2022-07-29T02:34:03;101406.19;;;19.15;55.44
17362;BME280;8798;51.938;4.348;2022-07-29T02:36:32;101401.97;;;19.12;55.69
17362;BME280;8798;51.938;4.348;2022-07-29T02:39:02;101392.31;;;19.09;55.77
17362;BME280;8798;51.938;4.348;2022-07-29T02:41:35;101387.22;;;19.06;55.75
17362;BME280;8798;51.938;4.348;2022-07-29T02:44:08;101380.31;;;19.04;55.67
17362;BME280;8798;51.938;4.348;2022-07-29T02:46:46;101369.63;;;19.02;55.73
17362;BME280;8798;51.938;4.348;2022-07-29T02:49:18;101379.84;;;19.00;55.82
17362;BME280;8798;51.938;4.348;2022-07-29T02:51:53;101372.91;;;18.98;56.09
17362;BME280;8798;51.938;4.348;2022-07-29T02:54:26;101360.72;;;18.94;56.18
17362;BME280;8798;51.938;4.348;2022-07-29T02:56:58;101356.72;;;18.89;56.05
17362;BME280;8798;51.938;4.348;2022-07-29T02:59:30;101363.84;;;18.90;55.89
17362;BME280;8798;51.938;4.348;2022-07-29T03:02:04;101364.03;;;18.89;56.29
17362;BME280;8798;51.938;4.348;2022-07-29T03:04:34;101356.06;;;18.87;56.24
17362;BME280;8798;51.938;4.348;2022-07-29T03:07:03;101360.69;;;18.87;56.44
17362;BME280;8798;51.938;4.348;2022-07-29T03:09:32;101361.03;;;18.84;56.53
17362;BME280;8798;51.938;4.348;2022-07-29T03:12:01;101356.81;;;18.81;56.21
17362;BME280;8798;51.938;4.348;2022-07-29T03:14:30;101361.44;;;18.81;56.58
17362;BME280;8798;51.938;4.348;2022-07-29T03:16:59;101366.88;;;18.81;56.45
17362;BME280;8798;51.938;4.348;2022-07-29T03:19:29;101378.44;;;18.83;56.83
17362;BME280;8798;51.938;4.348;2022-07-29T03:21:57;101384.91;;;18.82;56.70
17362;BME280;8798;51.938;4.348;2022-07-29T03:24:32;101376.94;;;18.80;57.17
17362;BME280;8798;51.938;4.348;2022-07-29T03:27:00;101376.94;;;18.80;56.87
17362;BME280;8798;51.938;4.348;2022-07-29T03:29:29;101376.47;;;18.77;56.77
17362;BME280;8798;51.938;4.348;2022-07-29T03:32:01;101356.28;;;18.71;57.03
17362;BME280;8798;51.938;4.348;2022-07-29T03:34:34;101362.56;;;18.72;57.01
17362;BME280;8798;51.938;4.348;2022-07-29T03:37:02;101371.75;;;18.70;56.66
17362;BME280;8798;51.938;4.348;2022-07-29T03:39:34;101379.09;;;18.70;56.97
17362;BME280;8798;51.938;4.348;2022-07-29T03:42:03;101371.94;;;18.69;57.00
17362;BME280;8798;51.938;4.348;2022-07-29T03:44:32;101364.16;;;18.66;57.09
17362;BME280;8798;51.938;4.348;2022-07-29T03:47:02;101345.91;;;18.60;57.12
17362;BME280;8798;51.938;4.348;2022-07-29T03:49:36;101339.16;;;18.56;56.95
17362;BME280;8798;51.938;4.348;2022-07-29T03:52:05;101349.84;;;18.57;57.38
17362;BME280;8798;51.938;4.348;2022-07-29T03:54:33;101358.84;;;18.58;57.18
17362;BME280;8798;51.938;4.348;2022-07-29T03:57:05;101360.53;;;18.59;57.39
17362;BME280;8798;51.938;4.348;2022-07-29T03:59:33;101374.13;;;18.59;57.41
17362;BME280;8798;51.938;4.348;2022-07-29T04:02:02;101390.28;;;18.60;57.31
17362;BME280;8798;51.938;4.348;2022-07-29T04:04:33;101393.00;;;18.60;57.39
17362;BME280;8798;51.938;4.348;2022-07-29T04:07:03;101399.28;;;18.61;57.33
17362;BME280;8798;51.938;4.348;2022-07-29T04:09:31;101399.28;;;18.61;57.47
17362;BME280;8798;51.938;4.348;2022-07-29T04:11:59;101408.50;;;18.60;57.56
17362;BME280;8798;51.938;4.348;2022-07-29T04:14:30;101384.75;;;18.54;57.75
17362;BME280;8798;51.938;4.348;2022-07-29T04:16:57;101369.00;;;18.49;57.62
17362;BME280;8798;51.938;4.348;2022-07-29T04:19:25;101374.44;;;18.49;57.58
17362;BME280;8798;51.938;4.348;2022-07-29T04:21:54;101385.97;;;18.51;57.78
17362;BME280;8798;51.938;4.348;2022-07-29T04:24:22;101409.06;;;18.55;57.82
17362;BME280;8798;51.938;4.348;2022-07-29T04:26:51;101421.63;;;18.56;57.63
17362;BME280;8798;51.938;4.348;2022-07-29T04:29:19;101416.41;;;18.55;57.74
17362;BME280;8798;51.938;4.348;2022-07-29T04:31:47;101401.66;;;18.49;57.78
17362;BME280;8798;51.938;4.348;2022-07-29T04:34:15;101388.63;;;18.44;58.22
17362;BME280;8798;51.938;4.348;2022-07-29T04:36:43;101369.28;;;18.39;57.83
17362;BME280;8798;51.938;4.348;2022-07-29T04:39:12;101364.25;;;18.36;57.88
17362;BME280;8798;51.938;4.348;2022-07-29T04:41:47;101358.16;;;18.34;57.97
17362;BME280;8798;51.938;4.348;2022-07-29T04:44:18;101345.09;;;18.30;58.12
17362;BME280;8798;51.938;4.348;2022-07-29T04:46:45;101347.19;;;18.27;57.93
17362;BME280;8798;51.938;4.348;2022-07-29T04:49:13;101357.88;;;18.29;58.46
17362;BME280;8798;51.938;4.348;2022-07-29T04:51:41;101369.59;;;18.30;57.94
17362;BME280;8798;51.938;4.348;2022-07-29T04:54:09;101364.34;;;18.28;58.19
17362;BME280;8798;51.938;4.348;2022-07-29T04:56:38;101383.00;;;18.31;58.23
17362;BME280;8798;51.938;4.348;2022-07-29T04:59:06;101391.19;;;18.31;58.25
17362;BME280;8798;51.938;4.348;2022-07-29T05:01:34;101381.50;;;18.29;58.54
17362;BME280;8798;51.938;4.348;2022-07-29T05:04:01;101387.78;;;18.29;58.19
17362;BME280;8798;51.938;4.348;2022-07-29T05:06:29;101386.13;;;18.28;58.09
17362;BME280;8798;51.938;4.348;2022-07-29T05:08:57;101384.63;;;18.25;58.69
17362;BME280;8798;51.938;4.348;2022-07-29T05:11:25;101394.47;;;18.26;58.75
17362;BME280;8798;51.938;4.348;2022-07-29T05:13:57;101415.00;;;18.29;58.58
17362;BME280;8798;51.938;4.348;2022-07-29T05:16:25;101415.00;;;18.29;58.86
17362;BME280;8798;51.938;4.348;2022-07-29T05:18:53;101428.41;;;18.31;58.71
17362;BME280;8798;51.938;4.348;2022-07-29T05:21:21;101433.03;;;18.30;58.65
17362;BME280;8798;51.938;4.348;2022-07-29T05:23:48;101441.81;;;18.32;58.63
17362;BME280;8798;51.938;4.348;2022-07-29T05:26:16;101461.53;;;18.34;58.72
17362;BME280;8798;51.938;4.348;2022-07-29T05:28:44;101466.78;;;18.36;58.60
17362;BME280;8798;51.938;4.348;2022-07-29T05:31:13;101484.78;;;18.37;58.90
17362;BME280;8798;51.938;4.348;2022-07-29T05:33:42;101489.00;;;18.39;58.69
17362;BME280;8798;51.938;4.348;2022-07-29T05:36:10;101509.53;;;18.42;58.89
17362;BME280;8798;51.938;4.348;2022-07-29T05:38:38;101525.31;;;18.46;59.01
17362;BME280;8798;51.938;4.348;2022-07-29T05:41:06;101559.28;;;18.51;58.87
17362;BME280;8798;51.938;4.348;2022-07-29T05:43:34;101563.53;;;18.53;58.95
17362;BME280;8798;51.938;4.348;2022-07-29T05:46:01;101583.91;;;18.57;59.12
17362;BME280;8798;51.938;4.348;2022-07-29T05:48:31;101608.69;;;18.62;59.21
17362;BME280;8798;51.938;4.348;2022-07-29T05:50:58;101627.34;;;18.65;59.12
17362;BME280;8798;51.938;4.348;2022-07-29T05:53:26;101620.84;;;18.66;59.59
17362;BME280;8798;51.938;4.348;2022-07-29T05:55:54;101640.56;;;18.68;59.23
17362;BME280;8798;51.938;4.348;2022-07-29T05:58:22;101628.84;;;18.68;59.21
17362;BME280;8798;51.938;4.348;2022-07-29T06:00:50;101645.84;;;18.70;59.03
17362;BME280;8798;51.938;4.348;2022-07-29T06:03:17;101661.81;;;18.73;59.13
17362;BME280;8798;51.938;4.348;2022-07-29T06:05:46;101667.75;;;18.77;59.37
17362;BME280;8798;51.938;4.348;2022-07-29T06:08:14;101683.91;;;18.78;59.17
17362;BME280;8798;51.938;4.348;2022-07-29T06:10:42;101684.56;;;18.80;59.16
17362;BME280;8798;51.938;4.348;2022-07-29T06:13:10;101687.28;;;18.80;59.19
17362;BME280;8798;51.938;4.348;2022-07-29T06:15:38;101696.97;;;18.83;59.29
17362;BME280;8798;51.938;4.348;2022-07-29T06:18:06;101716.47;;;18.86;59.07
17362;BME280;8798;51.938;4.348;2022-07-29T06:20:36;101725.97;;;18.90;59.10
17362;BME280;8798;51.938;4.348;2022-07-29T06:23:05;101743.84;;;18.93;59.22
17362;BME280;8798;51.938;4.348;2022-07-29T06:25:33;101765.06;;;18.98;59.33
17362;BME280;8798;51.938;4.348;2022-07-29T06:28:03;101785.47;;;19.02;59.50
17362;BME280;8798;51.938;4.348;2022-07-29T06:30:31;101793.06;;;19.06;58.99
17362;BME280;8798;51.938;4.348;2022-07-29T06:32:59;101816.00;;;19.12;59.38
17362;BME280;8798;51.938;4.348;2022-07-29T06:35:33;101861.19;;;19.21;59.46
17362;BME280;8798;51.938;4.348;2022-07-29T06:38:09;101889.22;;;19.30;59.42
17362;BME280;8798;51.938;4.348;2022-07-29T06:40:58;101922.06;;;19.37;59.33
17362;BME280;8798;51.938;4.348;2022-07-29T06:43:31;101941.44;;;19.42;59.29
17362;BME280;8798;51.938;4.348;2022-07-29T06:46:01;101940.38;;;19.43;59.15
17362;BME280;8798;51.938;4.348;2022-07-29T06:48:29;101936.66;;;19.44;59.48
17362;BME280;8798;51.938;4.348;2022-07-29T06:50:57;101946.34;;;19.46;59.26
17362;BME280;8798;51.938;4.348;2022-07-29T06:53:27;101945.28;;;19.47;59.15
17362;BME280;8798;51.938;4.348;2022-07-29T06:55:55;101941.72;;;19.47;59.33
17362;BME280;8798;51.938;4.348;2022-07-29T06:58:25;101939.84;;;19.47;59.09
17362;BME280;8798;51.938;4.348;2022-07-29T07:00:53;101928.09;;;19.47;59.07
17362;BME280;8798;51.938;4.348;2022-07-29T07:03:21;101931.84;;;19.46;59.26
17362;BME280;8798;51.938;4.348;2022-07-29T07:05:51;101916.69;;;19.43;59.32
17362;BME280;8798;51.938;4.348;2022-07-29T07:08:20;101916.34;;;19.46;59.15
17362;BME280;8798;51.938;4.348;2022-07-29T07:10:49;101932.34;;;19.49;59.30
17362;BME280;8798;51.938;4.348;2022-07-29T07:13:17;101942.84;;;19.52;59.26
17362;BME280;8798;51.938;4.348;2022-07-29T07:15:46;101937.25;;;19.54;59.30
17362;BME280;8798;51.938;4.348;2022-07-29T07:18:15;101947.75;;;19.57;59.16
17362;BME280;8798;51.938;4.348;2022-07-29T07:20:43;101944.00;;;19.58;58.98
17362;BME280;8798;51.938;4.348;2022-07-29T07:23:11;101947.59;;;19.59;59.01
17362;BME280;8798;51.938;4.348;2022-07-29T07:25:38;101955.56;;;19.60;59.05
17362;BME280;8798;51.938;4.348;2022-07-29T07:28:08;101960.66;;;19.63;59.19
17362;BME280;8798;51.938;4.348;2022-07-29T07:30:36;101956.06;;;19.64;59.20
17362;BME280;8798;51.938;4.348;2022-07-29T07:33:04;101963.19;;;19.65;58.98
17362;BME280;8798;51.938;4.348;2022-07-29T07:35:32;101972.91;;;19.67;59.16
17362;BME280;8798;51.938;4.348;2022-07-29T07:38:00;101977.16;;;19.70;59.15
17362;BME280;8798;51.938;4.348;2022-07-29T07:40:28;101978.00;;;19.70;59.00
17362;BME280;8798;51.938;4.348;2022-07-29T07:42:55;101977.66;;;19.73;59.06
17362;BME280;8798;51.938;4.348;2022-07-29T07:45:26;101998.03;;;19.77;58.89
17362;BME280;8798;51.938;4.348;2022-07-29T07:47:54;102029.00;;;19.85;59.05
17362;BME280;8798;51.938;4.348;2022-07-29T07:50:22;102059.81;;;19.93;58.96
17362;BME280;8798;51.938;4.348;2022-07-29T07:52:52;102076.47;;;19.98;59.02
17362;BME280;8798;51.938;4.348;2022-07-29T07:55:20;102078.66;;;20.03;58.66
17362;BME280;8798;51.938;4.348;2022-07-29T07:57:47;102085.13;;;20.02;58.82
17362;BME280;8798;51.938;4.348;2022-07-29T08:00:16;102069.59;;;20.03;58.84
17362;BME280;8798;51.938;4.348;2022-07-29T08:02:50;102058.50;;;20.04;58.58
17362;BME280;8798;51.938;4.348;2022-07-29T08:05:18;102075.53;;;20.06;58.82
17362;BME280;8798;51.938;4.348;2022-07-29T08:07:46;102085.06;;;20.10;58.75
17362;BME280;8798;51.938;4.348;2022-07-29T08:10:15;102100.03;;;20.14;58.75
17362;BME280;8798;51.938;4.348;2022-07-29T08:13:03;102099.84;;;20.16;58.71
17362;BME280;8798;51.938;4.348;2022-07-29T08:15:31;102100.31;;;20.19;58.66
17362;BME280;8798;51.938;4.348;2022-07-29T08:18:01;102114.44;;;20.23;58.63
17362;BME280;8798;51.938;4.348;2022-07-29T08:20:34;102128.56;;;20.27;58.82
17362;BME280;8798;51.938;4.348;2022-07-29T08:23:03;102131.78;;;20.30;58.70
17362;BME280;8798;51.938;4.348;2022-07-29T08:25:32;102131.78;;;20.30;58.68
17362;BME280;8798;51.938;4.348;2022-07-29T08:28:04;102123.78;;;20.29;58.73
17362;BME280;8798;51.938;4.348;2022-07-29T08:30:32;102121.72;;;20.31;58.69
17362;BME280;8798;51.938;4.348;2022-07-29T08:33:01;102126.81;;;20.34;58.61
17362;BME280;8798;51.938;4.348;2022-07-29T08:35:29;102134.44;;;20.38;58.64
17362;BME280;8798;51.938;4.348;2022-07-29T08:38:01;102137.84;;;20.40;58.80
17362;BME280;8798;51.938;4.348;2022-07-29T08:40:29;102138.69;;;20.41;58.69
17362;BME280;8798;51.938;4.348;2022-07-29T08:42:58;102150.94;;;20.45;58.62
17362;BME280;8798;51.938;4.348;2022-07-29T08:45:27;102156.69;;;20.50;58.52
17362;BME280;8798;51.938;4.348;2022-07-29T08:47:56;102176.25;;;20.54;58.50
17362;BME280;8798;51.938;4.348;2022-07-29T08:50:26;102171.34;;;20.57;58.58
17362;BME280;8798;51.938;4.348;2022-07-29T08:52:54;102186.28;;;20.61;58.30
17362;BME280;8798;51.938;4.348;2022-07-29T08:55:25;102198.56;;;20.66;58.73
17362;BME280;8798;51.938;4.348;2022-07-29T08:57:54;102204.69;;;20.68;58.48
17362;BME280;8798;51.938;4.348;2022-07-29T09:00:24;102218.81;;;20.71;58.30
17362;BME280;8798;51.938;4.348;2022-07-29T09:02:57;102224.56;;;20.76;58.42
17362;BME280;8798;51.938;4.348;2022-07-29T09:05:27;102236.81;;;20.80;58.26
17362;BME280;8798;51.938;4.348;2022-07-29T09:07:56;102251.63;;;20.86;57.95
17362;BME280;8798;51.938;4.348;2022-07-29T09:10:24;102259.25;;;20.91;58.47
17362;BME280;8798;51.938;4.348;2022-07-29T09:12:51;102273.38;;;20.94;58.32
17362;BME280;8798;51.938;4.348;2022-07-29T09:15:19;102279.16;;;20.99;58.28
17362;BME280;8798;51.938;4.348;2022-07-29T09:17:49;102282.38;;;21.03;58.51
17362;BME280;8798;51.938;4.348;2022-07-29T09:20:20;102291.91;;;21.07;58.28
17362;BME280;8798;51.938;4.348;2022-07-29T09:22:50;102293.41;;;21.10;58.00
17362;BME280;8798;51.938;4.348;2022-07-29T09:25:33;102301.25;;;21.13;58.25
17362;BME280;8798;51.938;4.348;2022-07-29T09:28:06;102310.78;;;21.17;58.26
17362;BME280;8798;51.938;4.348;2022-07-29T09:30:34;102314.81;;;21.21;57.94
17362;BME280;8798;51.938;4.348;2022-07-29T09:33:03;102317.16;;;21.24;57.88
17362;BME280;8798;51.938;4.348;2022-07-29T09:35:31;102319.56;;;21.27;58.22
17362;BME280;8798;51.938;4.348;2022-07-29T09:38:10;102337.75;;;21.35;57.83
17362;BME280;8798;51.938;4.348;2022-07-29T09:40:38;102345.44;;;21.39;58.10
17362;BME280;8798;51.938;4.348;2022-07-29T09:43:10;102353.94;;;21.44;58.17
17362;BME280;8798;51.938;4.348;2022-07-29T09:45:38;102375.03;;;21.51;57.54
17362;BME280;8798;51.938;4.348;2022-07-29T09:48:14;102402.34;;;21.59;57.53
17362;BME280;8798;51.938;4.348;2022-07-29T09:50:43;102402.63;;;21.64;57.93
17362;BME280;8798;51.938;4.348;2022-07-29T09:53:29;102414.88;;;21.68;57.81
17362;BME280;8798;51.938;4.348;2022-07-29T09:55:58;102421.66;;;21.72;57.77
17362;BME280;8798;51.938;4.348;2022-07-29T09:58:26;102424.88;;;21.76;57.68
17362;BME280;8798;51.938;4.348;2022-07-29T10:00:56;102433.38;;;21.81;57.69
17362;BME280;8798;51.938;4.348;2022-07-29T10:03:25;102442.91;;;21.85;57.18
17362;BME280;8798;51.938;4.348;2022-07-29T10:06:06;102451.22;;;21.92;57.07
17362;BME280;8798;51.938;4.348;2022-07-29T10:08:36;102474.91;;;21.99;57.43
17362;BME280;8798;51.938;4.348;2022-07-29T10:11:12;102484.25;;;22.05;57.21
17362;BME280;8798;51.938;4.348;2022-07-29T10:13:41;102488.34;;;22.09;56.87
17362;BME280;8798;51.938;4.348;2022-07-29T10:16:09;102489.63;;;22.13;56.83
17362;BME280;8798;51.938;4.348;2022-07-29T10:18:39;102490.97;;;22.17;56.80
17362;BME280;8798;51.938;4.348;2022-07-29T10:21:07;102493.38;;;22.20;56.52
17362;BME280;8798;51.938;4.348;2022-07-29T10:23:49;102492.13;;;22.23;56.98
17362;BME280;8798;51.938;4.348;2022-07-29T10:26:17;102500.66;;;22.28;56.70
17362;BME280;8798;51.938;4.348;2022-07-29T10:28:45;102521.63;;;22.36;56.37
17362;BME280;8798;51.938;4.348;2022-07-29T10:31:19;102537.28;;;22.42;56.49
17362;BME280;8798;51.938;4.348;2022-07-29T10:33:57;102546.63;;;22.47;56.04
17362;BME280;8798;51.938;4.348;2022-07-29T10:36:41;102556.63;;;22.55;56.64
17362;BME280;8798;51.938;4.348;2022-07-29T10:39:22;102563.28;;;22.61;56.50
17362;BME280;8798;51.938;4.348;2022-07-29T10:42:17;102569.88;;;22.66;56.15
17362;BME280;8798;51.938;4.348;2022-07-29T10:45:00;102574.78;;;22.71;56.23
17362;BME280;8798;51.938;4.348;2022-07-29T10:47:30;102581.41;;;22.76;56.20
17362;BME280;8798;51.938;4.348;2022-07-29T10:50:02;102588.88;;;22.83;56.08
17362;BME280;8798;51.938;4.348;2022-07-29T10:52:51;102604.38;;;22.90;55.94
17362;BME280;8798;51.938;4.348;2022-07-29T10:55:32;102607.56;;;22.94;55.47
17362;BME280;8798;51.938;4.348;2022-07-29T10:58:22;102601.53;;;22.99;55.65
17362;BME280;8798;51.938;4.348;2022-07-29T11:00:52;102614.69;;;23.03;55.51
17362;BME280;8798;51.938;4.348;2022-07-29T11:03:42;102623.84;;;23.10;55.00
17362;BME280;8798;51.938;4.348;2022-07-29T11:06:16;102632.34;;;23.15;55.35
17362;BME280;8798;51.938;4.348;2022-07-29T11:09:14;102644.25;;;23.23;55.30
17362;BME280;8798;51.938;4.348;2022-07-29T11:11:46;102650.84;;;23.28;55.13
17362;BME280;8798;51.938;4.348;2022-07-29T11:14:17;102653.69;;;23.35;54.55
17362;BME280;8798;51.938;4.348;2022-07-29T11:17:03;102656.69;;;23.40;54.52
17362;BME280;8798;51.938;4.348;2022-07-29T11:19:33;102666.06;;;23.46;54.74
17362;BME280;8798;51.938;4.348;2022-07-29T11:22:07;102674.38;;;23.52;54.66
17362;BME280;8798;51.938;4.348;2022-07-29T11:24:36;102690.72;;;23.60;54.02
17362;BME280;8798;51.938;4.348;2022-07-29T11:27:19;102711.50;;;23.70;54.54
17362;BME280;8798;51.938;4.348;2022-07-29T11:29:51;102720.06;;;23.75;54.35
17362;BME280;8798;51.938;4.348;2022-07-29T11:32:20;102718.81;;;23.77;54.06
17362;BME280;8798;51.938;4.348;2022-07-29T11:35:13;102708.09;;;23.82;53.76
17362;BME280;8798;51.938;4.348;2022-07-29T11:37:43;102704.13;;;23.85;53.83
17362;BME280;8798;51.938;4.348;2022-07-29T11:40:23;102719.63;;;23.93;53.88
17362;BME280;8798;51.938;4.348;2022-07-29T11:42:52;102729.63;;;24.00;53.42
17362;BME280;8798;51.938;4.348;2022-07-29T11:45:23;102714.47;;;24.04;53.33
17362;BME280;8798;51.938;4.348;2022-07-29T11:48:15;102724.66;;;24.11;52.77
17362;BME280;8798;51.938;4.348;2022-07-29T11:50:56;102730.41;;;24.16;52.91
17362;BME280;8798;51.938;4.348;2022-07-29T11:53:24;102737.88;;;24.22;52.74
17362;BME280;8798;51.938;4.348;2022-07-29T11:55:58;102743.44;;;24.29;52.88
17362;BME280;8798;51.938;4.348;2022-07-29T11:58:48;102753.44;;;24.36;52.42
17362;BME280;8798;51.938;4.348;2022-07-29T12:01:17;102763.63;;;24.42;52.42
17362;BME280;8798;51.938;4.348;2022-07-29T12:03:45;102748.88;;;24.43;52.55
17362;BME280;8798;51.938;4.348;2022-07-29T12:06:14;102750.19;;;24.48;52.11
17362;BME280;8798;51.938;4.348;2022-07-29T12:08:44;102746.00;;;24.52;52.15
17362;BME280;8798;51.938;4.348;2022-07-29T12:11:17;102745.59;;;24.55;52.09
17362;BME280;8798;51.938;4.348;2022-07-29T12:13:49;102736.09;;;24.57;52.07
17362;BME280;8798;51.938;4.348;2022-07-29T12:16:17;102715.84;;;24.58;51.71
17362;BME280;8798;51.938;4.348;2022-07-29T12:18:56;102717.13;;;24.62;51.62
17362;BME280;8798;51.938;4.348;2022-07-29T12:21:24;102704.88;;;24.65;51.40
17362;BME280;8798;51.938;4.348;2022-07-29T12:23:55;102706.38;;;24.67;51.44
17362;BME280;8798;51.938;4.348;2022-07-29T12:26:34;102695.19;;;24.69;51.12
17362;BME280;8798;51.938;4.348;2022-07-29T12:29:03;102674.88;;;24.70;50.93
17362;BME280;8798;51.938;4.348;2022-07-29T12:31:37;102673.44;;;24.74;50.98
17362;BME280;8798;51.938;4.348;2022-07-29T12:34:10;102677.28;;;24.80;50.76
17362;BME280;8798;51.938;4.348;2022-07-29T12:36:38;102688.31;;;24.86;50.68
17362;BME280;8798;51.938;4.348;2022-07-29T12:39:06;102688.56;;;24.92;50.63
17362;BME280;8798;51.938;4.348;2022-07-29T12:41:35;102686.47;;;24.94;50.16
17362;BME280;8798;51.938;4.348;2022-07-29T12:44:05;102686.50;;;25.00;50.44
17362;BME280;8798;51.938;4.348;2022-07-29T12:46:33;102692.44;;;25.04;50.00
17362;BME280;8798;51.938;4.348;2022-07-29T12:49:01;102681.25;;;25.05;50.10
17362;BME280;8798;51.938;4.348;2022-07-29T12:51:30;102679.78;;;25.09;49.85
17362;BME280;8798;51.938;4.348;2022-07-29T12:54:05;102668.59;;;25.11;49.48
17362;BME280;8798;51.938;4.348;2022-07-29T12:56:33;102692.81;;;25.22;49.56
17362;BME280;8798;51.938;4.348;2022-07-29T12:59:19;102751.94;;;25.40;49.46
17362;BME280;8798;51.938;4.348;2022-07-29T13:01:50;102793.09;;;25.55;49.35
17362;BME280;8798;51.938;4.348;2022-07-29T13:04:25;102812.84;;;25.65;49.20
17362;BME280;8798;51.938;4.348;2022-07-29T13:07:01;102836.19;;;25.75;49.16
17362;BME280;8798;51.938;4.348;2022-07-29T13:09:40;102854.44;;;25.83;48.97
17362;BME280;8798;51.938;4.348;2022-07-29T13:12:10;102862.78;;;25.90;48.84
17362;BME280;8798;51.938;4.348;2022-07-29T13:14:40;102854.94;;;25.93;48.47
17362;BME280;8798;51.938;4.348;2022-07-29T13:17:10;102856.06;;;25.99;48.53
17362;BME280;8798;51.938;4.348;2022-07-29T13:19:39;102856.28;;;26.04;48.48
17362;BME280;8798;51.938;4.348;2022-07-29T13:22:08;102828.09;;;26.02;48.49